createdAt,value
2023-05-18T00:03:12.571Z,5.88
2023-05-18T00:08:15.375Z,5.73
2023-05-18T00:13:20.527Z,5.62
2023-05-18T00:18:27.282Z,5.58
2023-05-18T00:23:30.912Z,5.49
2023-05-18T00:28:35.420Z,5.47
2023-05-18T00:33:38.244Z,5.40
2023-05-18T00:38:41.176Z,5.33
2023-05-18T00:43:46.416Z,5.29
2023-05-18T00:48:50.764Z,5.26
2023-05-18T00:53:54.960Z,5.16
2023-05-18T00:58:59.238Z,5.14
2023-05-18T01:04:03.103Z,5.07
2023-05-18T01:09:09.806Z,5.02
2023-05-18T01:14:18.971Z,4.93
2023-05-18T01:19:53.866Z,4.83
2023-05-18T01:25:04.747Z,4.80
2023-05-18T01:30:11.478Z,4.70
2023-05-18T01:35:14.558Z,4.66
2023-05-18T01:40:17.570Z,4.64
2023-05-18T01:45:24.605Z,4.54
2023-05-18T01:50:37.837Z,4.49
2023-05-18T01:55:42.506Z,4.44
2023-05-18T02:00:47.849Z,4.41
2023-05-18T02:05:50.706Z,4.37
2023-05-18T02:10:53.739Z,4.25
2023-05-18T02:15:58.270Z,4.23
2023-05-18T02:21:01.736Z,4.20
2023-05-18T02:26:04.553Z,4.11
2023-05-18T02:31:09.951Z,4.07
2023-05-18T02:36:15.123Z,4.03
2023-05-18T02:41:17.954Z,3.92
2023-05-18T02:46:22.535Z,3.92
2023-05-18T02:51:26.722Z,3.83
2023-05-18T02:56:29.956Z,3.77
2023-05-18T03:01:42.997Z,3.69
2023-05-18T03:06:47.294Z,3.64
2023-05-18T03:11:51.703Z,3.61
2023-05-18T03:16:57.833Z,3.57
2023-05-18T03:22:00.847Z,3.54
2023-05-18T03:27:04.276Z,3.50
2023-05-18T03:32:09.204Z,3.42
2023-05-18T03:37:12.925Z,3.46
2023-05-18T03:42:15.812Z,3.46
2023-05-18T03:47:22.115Z,3.39
2023-05-18T03:52:25.218Z,3.38
2023-05-18T03:57:29.291Z,3.40
2023-05-18T04:02:37.062Z,3.36
2023-05-18T04:07:46.484Z,3.44
2023-05-18T04:12:49.370Z,3.50
2023-05-18T04:17:54.207Z,3.56
2023-05-18T04:22:58.397Z,3.64
2023-05-18T04:28:01.593Z,3.75
2023-05-18T04:33:06.661Z,3.83
2023-05-18T04:38:10.716Z,3.96
2023-05-18T04:43:13.589Z,4.07
2023-05-18T04:48:19.436Z,4.17
2023-05-18T04:53:23.476Z,4.28
2023-05-18T04:58:28.706Z,4.39
2023-05-18T05:03:34.708Z,4.54
2023-05-18T05:08:38.613Z,4.74
2023-05-18T05:13:41.533Z,4.87
2023-05-18T05:18:47.296Z,5.11
2023-05-18T05:23:51.480Z,5.35
2023-05-18T05:28:54.421Z,5.60
2023-05-18T05:34:00.131Z,5.96
2023-05-18T05:39:03.695Z,6.31
2023-05-18T05:44:07.403Z,6.65
2023-05-18T05:49:11.637Z,6.98
2023-05-18T05:54:15.585Z,7.35
2023-05-18T05:59:18.638Z,7.76
2023-05-18T06:04:23.077Z,8.07
2023-05-18T06:09:27.673Z,8.51
2023-05-18T06:14:30.896Z,9.01
2023-05-18T06:19:35.801Z,9.47
2023-05-18T06:24:38.899Z,9.69
2023-05-18T06:30:00.566Z,9.39
2023-05-18T06:35:27.453Z,9.98
2023-05-18T06:40:30.254Z,10.28
2023-05-18T06:45:36.833Z,10.59
2023-05-18T06:50:52.071Z,10.43
2023-05-18T06:55:55.077Z,10.65
2023-05-18T07:00:57.988Z,11.34
2023-05-18T07:06:03.772Z,10.98
2023-05-18T07:11:08.466Z,11.23
2023-05-18T07:16:11.360Z,11.52
2023-05-18T07:21:15.704Z,11.85
2023-05-18T07:26:18.943Z,11.96
2023-05-18T07:31:22.816Z,12.29
2023-05-18T07:36:29.573Z,12.33
2023-05-18T07:41:32.440Z,12.47
2023-05-18T07:46:35.764Z,12.70
2023-05-18T07:51:42.018Z,13.08
2023-05-18T07:56:47.468Z,13.18
2023-05-18T08:01:50.278Z,13.86
2023-05-18T08:06:54.895Z,13.48
2023-05-18T08:11:58.740Z,14.13
2023-05-18T08:17:05.608Z,14.49
2023-05-18T08:22:09.880Z,14.76
2023-05-18T08:27:12.713Z,14.86
2023-05-18T08:32:15.514Z,14.35
2023-05-18T08:37:19.819Z,14.37
2023-05-18T08:42:41.588Z,14.40
2023-05-18T08:47:52.336Z,14.33
2023-05-18T08:53:01.782Z,14.63
2023-05-18T08:58:07.383Z,14.74
2023-05-18T09:03:11.528Z,15.26
2023-05-18T09:08:16.034Z,16.01
2023-05-18T09:13:20.748Z,15.54
2023-05-18T09:18:25.509Z,15.77
2023-05-18T09:23:31.792Z,16.61
2023-05-18T09:28:37.779Z,16.91
2023-05-18T09:33:41.491Z,16.60
2023-05-18T09:38:47.850Z,16.60
2023-05-18T09:43:52.407Z,16.91
2023-05-18T09:48:56.631Z,16.87
2023-05-18T09:54:07.955Z,16.62
2023-05-18T09:59:12.559Z,17.19
2023-05-18T10:04:15.472Z,17.08
2023-05-18T10:09:19.885Z,17.23
2023-05-18T10:14:25.200Z,17.85
2023-05-18T10:19:29.345Z,17.67
2023-05-18T10:24:36.820Z,17.42
2023-05-18T10:29:41.241Z,18.03
2023-05-18T10:34:44.654Z,18.22
2023-05-18T10:39:51.698Z,17.51
2023-05-18T10:44:55.781Z,18.16
2023-05-18T10:50:00.036Z,18.19
2023-05-18T10:55:05.177Z,17.90
2023-05-18T11:00:10.977Z,18.19
2023-05-18T11:05:14.894Z,18.41
2023-05-18T11:10:19.136Z,18.07
2023-05-18T11:15:21.989Z,17.85
2023-05-18T11:20:26.860Z,18.39
2023-05-18T11:25:43.439Z,18.41
2023-05-18T11:30:50.277Z,19.01
2023-05-18T11:36:08.459Z,19.46
2023-05-18T11:41:28.764Z,19.37
2023-05-18T11:46:31.646Z,19.60
2023-05-18T11:51:35.204Z,20.49
2023-05-18T11:56:42.306Z,20.74
2023-05-18T12:01:45.314Z,22.27
2023-05-18T12:06:48.203Z,22.50
2023-05-18T12:11:53.343Z,22.39
2023-05-18T12:16:59.857Z,22.93
2023-05-18T12:22:02.898Z,24.68
2023-05-18T12:27:09.558Z,24.20
2023-05-18T12:32:14.805Z,23.56
2023-05-18T12:37:17.981Z,24.09
2023-05-18T12:42:22.771Z,25.25
2023-05-18T12:47:26.534Z,25.14
2023-05-18T12:52:29.969Z,24.33
2023-05-18T12:57:41.496Z,25.40
2023-05-18T13:02:44.358Z,25.00
2023-05-18T13:07:47.575Z,24.95
2023-05-18T13:12:54.109Z,24.70
2023-05-18T13:17:59.146Z,26.70
2023-05-18T13:23:05.013Z,26.99
2023-05-18T13:28:11.061Z,26.85
2023-05-18T13:33:15.063Z,27.75
2023-05-18T13:38:18.730Z,29.09
2023-05-18T13:43:22.925Z,29.38
2023-05-18T13:48:27.710Z,29.11
2023-05-18T13:53:30.663Z,32.08
2023-05-18T13:58:36.160Z,31.22
2023-05-18T14:03:40.691Z,31.11
2023-05-18T14:08:43.596Z,32.22
2023-05-18T14:13:48.117Z,29.64
2023-05-18T14:18:50.949Z,30.08
2023-05-18T14:23:53.868Z,31.28
2023-05-18T14:28:58.016Z,33.79
2023-05-18T14:34:00.994Z,32.27
2023-05-18T14:39:04.737Z,31.25
2023-05-18T14:44:09.957Z,32.02
2023-05-18T14:49:14.710Z,33.78
2023-05-18T14:54:18.976Z,32.37
2023-05-18T14:59:24.074Z,31.52
2023-05-18T15:04:26.925Z,35.22
2023-05-18T15:09:29.723Z,32.49
2023-05-18T15:14:33.905Z,34.31
2023-05-18T15:19:36.991Z,35.45
2023-05-18T15:24:40.124Z,35.01
2023-05-18T15:29:44.257Z,38.28
2023-05-18T15:34:47.117Z,37.44
2023-05-18T15:39:50.198Z,34.05
2023-05-18T15:44:54.367Z,36.02
2023-05-18T15:49:58.090Z,34.40
2023-05-18T15:55:01.097Z,33.69
2023-05-18T16:00:06.334Z,34.18
2023-05-18T16:05:14.537Z,31.87
2023-05-18T16:10:18.522Z,35.48
2023-05-18T16:15:24.664Z,37.25
2023-05-18T16:20:27.469Z,36.22
2023-05-18T16:25:30.388Z,35.39
2023-05-18T16:30:34.747Z,36.00
2023-05-18T16:35:37.947Z,35.36
2023-05-18T16:40:40.799Z,35.87
2023-05-18T16:45:45.133Z,37.42
2023-05-18T16:50:49.333Z,34.48
2023-05-18T16:55:52.282Z,33.36
2023-05-18T17:00:57.324Z,33.66
2023-05-18T17:06:00.169Z,31.95
2023-05-18T17:11:03.306Z,31.06
2023-05-18T17:16:09.982Z,31.11
2023-05-18T17:21:13.976Z,31.36
2023-05-18T17:26:20.249Z,31.58
2023-05-18T17:31:27.612Z,26.66
2023-05-18T17:36:31.339Z,23.11
2023-05-18T17:41:34.404Z,21.58
2023-05-18T17:46:39.363Z,20.47
2023-05-18T17:51:44.360Z,19.47
2023-05-18T17:56:47.361Z,18.79
2023-05-18T18:01:52.391Z,19.10
2023-05-18T18:06:55.321Z,18.04
2023-05-18T18:11:58.247Z,17.81
2023-05-18T18:17:04.656Z,17.44
2023-05-18T18:22:08.332Z,17.24
2023-05-18T18:27:11.747Z,16.83
2023-05-18T18:32:16.706Z,16.54
2023-05-18T18:37:22.398Z,16.36
2023-05-18T18:42:25.251Z,15.96
2023-05-18T18:47:29.566Z,15.83
2023-05-18T18:52:32.630Z,15.47
2023-05-18T18:57:35.600Z,15.27
2023-05-18T19:02:39.845Z,14.95
2023-05-18T19:07:42.759Z,14.81
2023-05-18T19:12:45.577Z,14.69
2023-05-18T19:17:53.777Z,14.52
2023-05-18T19:22:57.473Z,14.29
2023-05-18T19:28:01.438Z,14.11
2023-05-18T19:33:07.473Z,13.86
2023-05-18T19:38:10.675Z,13.76
2023-05-18T19:43:13.560Z,13.58
2023-05-18T19:48:18.378Z,13.46
2023-05-18T19:53:22.843Z,13.30
2023-05-18T19:58:26.341Z,13.11
2023-05-18T20:03:31.517Z,12.99
2023-05-18T20:08:36.209Z,12.92
2023-05-18T20:13:39.573Z,12.87
2023-05-18T20:18:46.065Z,12.76
2023-05-18T20:23:50.099Z,12.63
2023-05-18T20:28:53.016Z,12.49
2023-05-18T20:33:57.923Z,12.39
2023-05-18T20:39:00.804Z,12.32
2023-05-18T20:44:03.853Z,12.23
2023-05-18T20:49:09.273Z,12.09
2023-05-18T20:54:13.182Z,11.98
2023-05-18T20:59:16.750Z,11.94
2023-05-18T21:04:21.018Z,11.91
2023-05-18T21:09:24.338Z,11.84
2023-05-18T21:14:27.096Z,11.81
2023-05-18T21:19:31.366Z,11.82
2023-05-18T21:24:34.339Z,11.73
2023-05-18T21:29:37.614Z,11.72
2023-05-18T21:34:43.816Z,11.65
2023-05-18T21:39:46.947Z,11.66
2023-05-18T21:44:50.015Z,11.60
2023-05-18T21:49:54.306Z,11.54
2023-05-18T21:54:57.452Z,11.50
2023-05-18T22:00:00.461Z,11.48
2023-05-18T22:05:04.796Z,11.46
2023-05-18T22:10:09.589Z,11.43
2023-05-18T22:15:13.629Z,11.38
2023-05-18T22:20:17.861Z,11.30
2023-05-18T22:25:22.130Z,11.28
2023-05-18T22:30:25.073Z,11.22
2023-05-18T22:35:29.470Z,11.21
2023-05-18T22:40:32.523Z,11.17
2023-05-18T22:45:36.216Z,11.15
2023-05-18T22:50:40.350Z,11.06
2023-05-18T22:55:43.339Z,11.02
2023-05-18T23:00:46.173Z,10.97
2023-05-18T23:05:50.296Z,10.93
2023-05-18T23:10:53.713Z,10.90
2023-05-18T23:15:57.655Z,10.86
2023-05-18T23:21:03.003Z,10.81
2023-05-18T23:26:05.894Z,10.80
2023-05-18T23:31:08.644Z,10.71
2023-05-18T23:36:14.730Z,10.60
2023-05-18T23:41:18.651Z,10.59
2023-05-18T23:46:22.109Z,10.59
2023-05-18T23:51:29.811Z,10.53
2023-05-18T23:56:33.198Z,10.41
